createdAt,value
2019-03-04T00:02:16.725Z,99.90
2019-03-04T00:04:46.186Z,99.90
2019-03-04T00:07:15.406Z,99.90
2019-03-04T00:09:44.586Z,99.90
2019-03-04T00:12:14.206Z,99.90
2019-03-04T00:14:43.270Z,99.90
2019-03-04T00:17:12.752Z,99.90
2019-03-04T00:19:41.744Z,99.90
2019-03-04T00:22:12.163Z,99.90
2019-03-04T00:24:41.425Z,99.90
2019-03-04T00:27:22.384Z,99.90
2019-03-04T00:29:52.343Z,99.90
2019-03-04T00:32:21.744Z,99.90
2019-03-04T00:34:50.963Z,99.90
2019-03-04T00:37:20.103Z,99.90
2019-03-04T00:39:49.823Z,99.90
2019-03-04T00:42:18.887Z,99.90
2019-03-04T00:44:50.965Z,99.90
2019-03-04T00:47:20.323Z,99.90
2019-03-04T00:49:49.843Z,99.90
2019-03-04T00:52:21.905Z,99.90
2019-03-04T00:54:51.003Z,99.90
2019-03-04T00:57:20.003Z,99.90
2019-03-04T00:59:49.443Z,99.90
2019-03-04T01:02:18.904Z,99.90
2019-03-04T01:04:48.022Z,99.90
2019-03-04T01:07:17.803Z,99.90
2019-03-04T01:09:47.023Z,99.90
2019-03-04T01:12:19.524Z,99.90
2019-03-04T01:14:48.723Z,99.90
2019-03-04T01:17:18.484Z,99.90
2019-03-04T01:19:48.244Z,99.90
2019-03-04T01:22:18.624Z,99.90
2019-03-04T01:24:48.264Z,99.90
2019-03-04T01:27:17.383Z,99.90
2019-03-04T01:29:49.823Z,99.90
2019-03-04T01:32:19.004Z,99.90
2019-03-04T01:34:48.824Z,99.90
2019-03-04T01:37:18.283Z,99.90
2019-03-04T01:39:48.883Z,99.90
2019-03-04T01:42:21.463Z,99.90
2019-03-04T01:44:50.725Z,99.90
2019-03-04T01:47:19.964Z,99.90
2019-03-04T01:49:49.625Z,99.90
2019-03-04T01:52:18.804Z,99.90
2019-03-04T01:54:47.846Z,99.90
2019-03-04T01:57:17.184Z,99.90
2019-03-04T01:59:46.642Z,99.90
2019-03-04T02:02:15.628Z,99.90
2019-03-04T02:04:49.348Z,99.90
2019-03-04T02:07:18.748Z,99.90
2019-03-04T02:09:47.872Z,99.90
2019-03-04T02:12:33.303Z,99.90
2019-03-04T02:15:02.443Z,99.90
2019-03-04T02:17:31.563Z,99.90
2019-03-04T02:20:01.005Z,99.90
2019-03-04T02:22:30.344Z,99.90
2019-03-04T02:24:59.603Z,99.90
2019-03-04T02:27:28.703Z,99.90
2019-03-04T02:29:58.163Z,99.90
2019-03-04T02:32:27.904Z,99.90
2019-03-04T02:34:57.286Z,99.90
2019-03-04T02:37:26.582Z,99.90
2019-03-04T02:39:55.924Z,99.90
2019-03-04T02:42:25.604Z,99.90
2019-03-04T02:44:54.964Z,99.90
2019-03-04T02:47:24.484Z,99.90
2019-03-04T02:49:54.004Z,99.90
2019-03-04T02:52:27.265Z,99.90
2019-03-04T02:54:56.384Z,99.90
2019-03-04T02:57:25.723Z,99.90
2019-03-04T02:59:54.963Z,99.90
2019-03-04T03:02:24.409Z,99.90
2019-03-04T03:04:53.851Z,99.90
2019-03-04T03:07:23.229Z,99.90
2019-03-04T03:09:52.670Z,99.90
2019-03-04T03:12:21.799Z,99.90
2019-03-04T03:14:51.289Z,99.90
2019-03-04T03:17:20.448Z,99.90
2019-03-04T03:19:49.929Z,99.90
2019-03-04T03:22:20.148Z,99.90
2019-03-04T03:24:49.228Z,99.90
2019-03-04T03:27:18.689Z,99.90
2019-03-04T03:29:48.050Z,99.90
2019-03-04T03:32:17.685Z,99.90
2019-03-04T03:34:48.365Z,99.90
2019-03-04T03:37:17.431Z,99.90
2019-03-04T03:39:46.803Z,99.90
2019-03-04T03:42:18.846Z,99.90
2019-03-04T03:44:47.064Z,99.90
2019-03-04T03:47:16.817Z,99.90
2019-03-04T03:49:46.253Z,99.90
2019-03-04T03:52:16.003Z,99.90
2019-03-04T03:54:46.804Z,99.90
2019-03-04T03:57:15.924Z,99.90
2019-03-04T03:59:45.043Z,99.90
2019-03-04T04:02:14.150Z,99.90
2019-03-04T04:04:43.271Z,99.90
2019-03-04T04:07:12.509Z,99.90
2019-03-04T04:09:42.191Z,99.90
2019-03-04T04:12:11.551Z,99.90
2019-03-04T04:14:42.253Z,99.90
2019-03-04T04:17:11.433Z,99.90
2019-03-04T04:19:40.602Z,99.90
2019-03-04T04:22:10.192Z,99.90
2019-03-04T04:24:39.323Z,99.90
2019-03-04T04:27:09.064Z,99.90
2019-03-04T04:29:38.325Z,99.90
2019-03-04T04:32:16.385Z,99.90
2019-03-04T04:34:45.494Z,99.90
2019-03-04T04:37:14.923Z,99.90
2019-03-04T04:39:44.343Z,99.90
2019-03-04T04:42:14.144Z,99.90
2019-03-04T04:44:43.303Z,99.90
2019-03-04T04:47:13.343Z,99.90
2019-03-04T04:49:42.487Z,99.90
2019-03-04T04:52:11.963Z,99.90
2019-03-04T04:54:41.084Z,99.90
2019-03-04T04:57:10.448Z,99.90
2019-03-04T04:59:39.764Z,99.90
2019-03-04T05:02:09.449Z,99.90
2019-03-04T05:04:38.388Z,99.90
2019-03-04T05:07:07.588Z,99.90
2019-03-04T05:09:36.710Z,99.90
2019-03-04T05:12:06.088Z,99.90
2019-03-04T05:14:35.449Z,99.90
2019-03-04T05:17:04.715Z,99.90
2019-03-04T05:19:34.428Z,99.90
2019-03-04T05:22:04.571Z,99.90
2019-03-04T05:24:36.628Z,99.90
2019-03-04T05:27:05.700Z,99.90
2019-03-04T05:29:35.032Z,99.90
2019-03-04T05:32:05.709Z,99.90
2019-03-04T05:34:35.390Z,99.90
2019-03-04T05:37:06.373Z,99.90
2019-03-04T05:39:35.915Z,99.90
2019-03-04T05:42:06.811Z,99.90
2019-03-04T05:44:36.003Z,99.90
2019-03-04T05:47:05.645Z,99.90
2019-03-04T05:49:36.583Z,99.90
2019-03-04T05:52:05.843Z,99.90
2019-03-04T05:54:35.283Z,99.90
2019-03-04T05:57:04.583Z,99.90
2019-03-04T05:59:36.026Z,99.90
2019-03-04T06:02:07.627Z,99.90
2019-03-04T06:04:36.690Z,99.90
2019-03-04T06:07:07.463Z,99.90
2019-03-04T06:09:38.193Z,99.90
2019-03-04T06:12:09.693Z,99.90
2019-03-04T06:14:38.553Z,99.90
2019-03-04T06:17:07.853Z,99.90
2019-03-04T06:19:36.755Z,99.90
2019-03-04T06:22:05.867Z,99.90
2019-03-04T06:24:36.281Z,98.40
2019-03-04T06:27:05.646Z,92.30
2019-03-04T06:29:43.951Z,82.30
2019-03-04T06:32:12.942Z,78.00
2019-03-04T06:34:41.772Z,74.40
2019-03-04T06:37:17.540Z,68.70
2019-03-04T06:39:49.215Z,64.10
2019-03-04T06:42:21.485Z,68.00
2019-03-04T06:44:59.950Z,75.40
2019-03-04T06:47:29.688Z,81.30
2019-03-04T06:50:02.146Z,84.50
2019-03-04T06:52:31.444Z,85.90
2019-03-04T06:55:24.824Z,78.10
2019-03-04T06:57:58.763Z,70.50
2019-03-04T07:00:33.576Z,63.90
2019-03-04T07:03:04.202Z,57.10
2019-03-04T07:05:48.531Z,56.60
2019-03-04T07:08:39.649Z,56.40
2019-03-04T07:11:08.904Z,55.40
2019-03-04T07:13:48.849Z,57.50
2019-03-04T07:16:18.315Z,58.10
2019-03-04T07:18:49.568Z,53.80
2019-03-04T07:21:19.009Z,51.20
2019-03-04T07:23:48.288Z,50.30
2019-03-04T07:26:18.188Z,48.20
2019-03-04T07:28:47.444Z,48.60
2019-03-04T07:31:17.924Z,49.40
2019-03-04T07:33:46.962Z,51.00
2019-03-04T07:36:16.404Z,52.60
2019-03-04T07:38:57.506Z,53.80
2019-03-04T07:41:27.764Z,54.20
2019-03-04T07:43:58.583Z,55.60
2019-03-04T07:46:31.262Z,56.30
2019-03-04T07:49:00.349Z,56.70
2019-03-04T07:51:29.683Z,55.60
2019-03-04T07:53:59.322Z,54.20
2019-03-04T07:56:28.303Z,52.60
2019-03-04T07:58:57.363Z,51.20
2019-03-04T08:01:29.728Z,52.00
2019-03-04T08:03:58.708Z,55.10
2019-03-04T08:06:28.243Z,55.20
2019-03-04T08:09:18.916Z,57.10
2019-03-04T08:12:13.563Z,59.80
2019-03-04T08:14:44.549Z,59.70
2019-03-04T08:17:15.084Z,59.30
2019-03-04T08:19:44.943Z,59.30
2019-03-04T08:22:14.123Z,59.90
2019-03-04T08:24:43.245Z,60.90
2019-03-04T08:27:12.723Z,62.20
2019-03-04T08:29:41.927Z,62.10
2019-03-04T08:32:14.483Z,61.90
2019-03-04T08:34:44.064Z,61.20
2019-03-04T08:37:13.123Z,61.40
2019-03-04T08:39:42.385Z,61.60
2019-03-04T08:42:11.583Z,60.20
2019-03-04T08:44:40.823Z,61.00
2019-03-04T08:47:09.884Z,60.40
2019-03-04T08:49:42.844Z,62.60
2019-03-04T08:52:13.545Z,65.10
2019-03-04T08:54:43.323Z,67.10
2019-03-04T08:57:12.724Z,70.90
2019-03-04T08:59:45.084Z,70.50
2019-03-04T09:02:14.804Z,73.20
2019-03-04T09:04:43.724Z,73.70
2019-03-04T09:07:17.085Z,77.10
2019-03-04T09:09:46.064Z,77.10
2019-03-04T09:12:15.443Z,74.50
2019-03-04T09:14:44.543Z,71.90
2019-03-04T09:17:14.004Z,69.90
2019-03-04T09:19:43.104Z,73.20
2019-03-04T09:22:15.205Z,74.00
2019-03-04T09:24:44.545Z,74.50
2019-03-04T09:27:18.163Z,76.40
2019-03-04T09:29:47.443Z,76.10
2019-03-04T09:32:20.843Z,72.50
2019-03-04T09:34:50.443Z,77.40
2019-03-04T09:37:19.523Z,71.00
2019-03-04T09:39:49.203Z,70.80
2019-03-04T09:42:21.424Z,69.70
2019-03-04T09:44:50.984Z,65.70
2019-03-04T09:47:20.105Z,66.10
2019-03-04T09:49:49.212Z,65.30
2019-03-04T09:52:18.245Z,65.40
2019-03-04T09:54:50.484Z,65.90
2019-03-04T09:57:31.643Z,69.60
2019-03-04T10:00:34.007Z,65.20
2019-03-04T10:03:35.784Z,65.20
2019-03-04T10:06:29.205Z,60.80
2019-03-04T10:09:25.705Z,61.90
2019-03-04T10:12:25.043Z,62.80
2019-03-04T10:15:08.698Z,61.60
2019-03-04T10:17:54.463Z,64.10
2019-03-04T10:20:45.843Z,59.90
2019-03-04T10:23:23.604Z,60.80
2019-03-04T10:26:22.123Z,62.20
2019-03-04T10:29:02.152Z,62.20
2019-03-04T10:31:41.743Z,62.50
2019-03-04T10:34:36.583Z,61.30
2019-03-04T10:37:26.524Z,63.40
2019-03-04T10:40:10.426Z,62.70
2019-03-04T10:43:15.763Z,62.10
2019-03-04T10:46:06.124Z,62.10
2019-03-04T10:48:35.363Z,63.80
2019-03-04T10:51:04.372Z,64.60
2019-03-04T10:53:35.843Z,61.90
2019-03-04T10:56:05.663Z,62.40
2019-03-04T10:58:34.685Z,62.00
2019-03-04T11:01:04.090Z,63.30
2019-03-04T11:03:33.265Z,61.50
2019-03-04T11:06:02.649Z,62.00
2019-03-04T11:08:31.710Z,63.50
2019-03-04T11:11:00.769Z,62.70
2019-03-04T11:13:29.952Z,64.80
2019-03-04T11:15:59.328Z,65.40
2019-03-04T11:18:28.483Z,64.80
2019-03-04T11:21:00.064Z,64.60
2019-03-04T11:23:33.785Z,65.10
2019-03-04T11:26:02.965Z,65.00
2019-03-04T11:28:32.011Z,64.90
2019-03-04T11:31:01.643Z,64.60
2019-03-04T11:33:30.783Z,63.50
2019-03-04T11:36:00.211Z,63.40
2019-03-04T11:38:52.568Z,63.50
2019-03-04T11:41:23.603Z,65.30
2019-03-04T11:43:53.363Z,64.00
2019-03-04T11:46:27.283Z,64.60
2019-03-04T11:48:56.506Z,64.90
2019-03-04T11:51:25.540Z,68.00
2019-03-04T11:53:54.963Z,64.40
2019-03-04T11:56:24.124Z,63.60
2019-03-04T11:58:53.587Z,64.40
2019-03-04T12:01:26.888Z,65.40
2019-03-04T12:03:55.869Z,65.90
2019-03-04T12:06:25.310Z,64.90
2019-03-04T12:08:55.203Z,62.90
2019-03-04T12:11:24.203Z,64.10
2019-03-04T12:13:56.564Z,65.50
2019-03-04T12:16:25.619Z,62.60
2019-03-04T12:18:55.103Z,65.20
2019-03-04T12:21:25.783Z,63.80
2019-03-04T12:23:55.268Z,63.70
2019-03-04T12:26:24.707Z,62.80
2019-03-04T12:28:53.687Z,62.50
2019-03-04T12:31:24.587Z,62.80
2019-03-04T12:33:53.770Z,61.10
2019-03-04T12:36:23.110Z,62.50
2019-03-04T12:38:52.475Z,62.30
2019-03-04T12:41:21.654Z,61.70
2019-03-04T12:43:50.755Z,61.10
2019-03-04T12:46:20.103Z,62.30
2019-03-04T12:48:50.004Z,62.30
2019-03-04T12:51:23.079Z,59.90
2019-03-04T12:53:49.522Z,60.50
2019-03-04T12:56:18.623Z,59.80
2019-03-04T12:58:48.483Z,60.00
2019-03-04T13:01:17.478Z,60.10
2019-03-04T13:03:46.550Z,60.00
2019-03-04T13:06:16.052Z,60.30
2019-03-04T13:08:45.151Z,59.80
2019-03-04T13:11:17.191Z,60.10
2019-03-04T13:13:46.331Z,60.50
2019-03-04T13:16:15.710Z,61.60
2019-03-04T13:18:45.085Z,60.70
2019-03-04T13:21:13.942Z,60.30
2019-03-04T13:23:43.023Z,60.50
2019-03-04T13:26:13.769Z,61.00
2019-03-04T13:28:43.284Z,60.80
2019-03-04T13:31:12.503Z,59.90
2019-03-04T13:33:41.462Z,60.50
2019-03-04T13:36:12.622Z,60.50
2019-03-04T13:38:42.323Z,60.40
2019-03-04T13:41:30.562Z,59.90
2019-03-04T13:43:59.663Z,59.10
2019-03-04T13:46:29.080Z,59.00
2019-03-04T13:48:58.264Z,59.30
2019-03-04T13:51:27.434Z,59.00
2019-03-04T13:53:56.419Z,59.00
2019-03-04T13:56:25.813Z,58.30
2019-03-04T13:58:55.131Z,57.10
2019-03-04T14:01:24.891Z,55.00
2019-03-04T14:03:53.963Z,52.00
2019-03-04T14:06:23.402Z,51.80
2019-03-04T14:08:52.829Z,52.40
2019-03-04T14:11:22.131Z,52.20
2019-03-04T14:14:01.954Z,52.20
2019-03-04T14:16:31.267Z,51.20
2019-03-04T14:19:00.893Z,51.00
2019-03-04T14:21:30.292Z,51.20
2019-03-04T14:23:59.643Z,49.50
2019-03-04T14:26:28.818Z,49.50
2019-03-04T14:28:57.887Z,49.10
2019-03-04T14:31:26.863Z,47.90
2019-03-04T14:33:56.617Z,48.50
2019-03-04T14:36:25.991Z,48.80
2019-03-04T14:38:55.703Z,48.50
2019-03-04T14:41:25.191Z,47.90
2019-03-04T14:43:57.911Z,47.70
2019-03-04T14:46:26.952Z,48.40
2019-03-04T14:48:56.264Z,48.50
2019-03-04T14:51:25.504Z,48.80
2019-03-04T14:53:54.923Z,48.90
2019-03-04T14:56:24.142Z,48.90
2019-03-04T14:59:09.603Z,49.00
2019-03-04T15:01:24.095Z,49.20
2019-03-04T15:03:56.257Z,48.90
2019-03-04T15:06:25.303Z,49.40
2019-03-04T15:08:54.356Z,49.70
2019-03-04T15:11:24.125Z,49.40
2019-03-04T15:13:59.065Z,49.50
2019-03-04T15:16:33.366Z,49.40
2019-03-04T15:19:02.807Z,49.80
2019-03-04T15:21:32.144Z,50.40
2019-03-04T15:24:01.484Z,50.50
2019-03-04T15:26:40.700Z,50.40
2019-03-04T15:29:01.428Z,50.70
2019-03-04T15:31:30.434Z,51.50
2019-03-04T15:33:59.494Z,52.50
2019-03-04T15:36:28.607Z,53.00
2019-03-04T15:38:57.948Z,53.10
2019-03-04T15:41:27.096Z,53.10
2019-03-04T15:43:56.547Z,53.50
2019-03-04T15:46:25.928Z,54.30
2019-03-04T15:48:55.048Z,53.70
2019-03-04T15:51:24.867Z,53.80
2019-03-04T15:53:54.327Z,53.80
2019-03-04T15:56:24.068Z,53.90
2019-03-04T15:58:53.727Z,53.70
2019-03-04T16:01:22.948Z,54.50
2019-03-04T16:03:52.707Z,54.00
2019-03-04T16:06:22.448Z,54.10
2019-03-04T16:09:16.768Z,54.00
2019-03-04T16:11:46.689Z,54.10
2019-03-04T16:14:19.869Z,54.40
2019-03-04T16:16:49.048Z,54.20
2019-03-04T16:19:18.168Z,54.40
2019-03-04T16:21:47.587Z,53.90
2019-03-04T16:24:19.048Z,53.30
2019-03-04T16:26:48.128Z,53.30
2019-03-04T16:29:19.328Z,53.80
2019-03-04T16:31:58.229Z,52.90
2019-03-04T16:34:29.588Z,52.90
2019-03-04T16:37:04.448Z,52.40
2019-03-04T16:39:36.711Z,52.10
2019-03-04T16:42:08.568Z,52.30
2019-03-04T16:44:39.938Z,52.90
2019-03-04T16:47:09.191Z,52.50
2019-03-04T16:49:40.089Z,52.90
2019-03-04T16:52:12.468Z,52.90
2019-03-04T16:54:46.547Z,53.00
2019-03-04T16:57:15.848Z,53.40
2019-03-04T16:59:45.527Z,53.70
2019-03-04T17:02:15.434Z,54.00
2019-03-04T17:04:44.428Z,54.20
2019-03-04T17:07:14.242Z,54.60
2019-03-04T17:09:43.523Z,54.80
2019-03-04T17:12:12.877Z,54.70
2019-03-04T17:14:43.907Z,54.80
2019-03-04T17:17:13.670Z,55.10
2019-03-04T17:19:43.007Z,55.20
2019-03-04T17:22:12.510Z,55.40
2019-03-04T17:24:42.227Z,55.60
2019-03-04T17:27:11.447Z,55.50
2019-03-04T17:29:41.004Z,55.50
2019-03-04T17:32:10.220Z,55.60
2019-03-04T17:34:39.433Z,55.90
2019-03-04T17:37:26.965Z,55.80
2019-03-04T17:39:56.604Z,55.70
2019-03-04T17:42:26.054Z,55.90
2019-03-04T17:44:57.592Z,56.10
2019-03-04T17:47:27.385Z,56.10
2019-03-04T17:49:56.590Z,56.20
2019-03-04T17:52:25.953Z,56.30
2019-03-04T17:54:58.252Z,57.00
2019-03-04T17:57:27.395Z,56.60
2019-03-04T17:59:57.204Z,56.70
2019-03-04T18:02:26.321Z,57.00
2019-03-04T18:04:57.023Z,57.10
2019-03-04T18:07:27.083Z,56.90
2019-03-04T18:09:56.523Z,57.00
2019-03-04T18:12:25.672Z,57.00
2019-03-04T18:14:55.076Z,57.10
2019-03-04T18:17:24.338Z,57.30
2019-03-04T18:19:53.693Z,57.10
2019-03-04T18:22:23.263Z,57.20
2019-03-04T18:24:52.823Z,57.50
2019-03-04T18:27:23.103Z,57.70
2019-03-04T18:29:59.423Z,58.10
2019-03-04T18:32:37.344Z,58.20
2019-03-04T18:35:09.286Z,57.90
2019-03-04T18:37:47.941Z,57.60
2019-03-04T18:40:45.480Z,58.10
2019-03-04T18:43:17.984Z,58.60
2019-03-04T18:46:23.508Z,59.80
2019-03-04T18:48:57.298Z,61.80
2019-03-04T18:51:27.551Z,66.20
2019-03-04T18:53:58.992Z,69.60
2019-03-04T18:56:28.691Z,78.00
2019-03-04T18:58:58.054Z,89.70
2019-03-04T19:01:29.047Z,97.30
2019-03-04T19:03:58.427Z,99.90
2019-03-04T19:06:28.087Z,99.90
2019-03-04T19:08:57.348Z,99.90
2019-03-04T19:11:26.808Z,99.90
2019-03-04T19:13:56.083Z,99.90
2019-03-04T19:16:25.206Z,99.90
2019-03-04T19:18:55.293Z,99.90
2019-03-04T19:21:24.928Z,99.90
2019-03-04T19:23:54.972Z,99.90
2019-03-04T19:26:24.429Z,99.90
2019-03-04T19:28:53.771Z,99.90
2019-03-04T19:31:23.510Z,99.90
2019-03-04T19:33:52.951Z,99.90
2019-03-04T19:36:22.571Z,99.90
2019-03-04T19:38:52.109Z,99.90
2019-03-04T19:41:23.145Z,99.90
2019-03-04T19:43:52.605Z,99.90
2019-03-04T19:46:21.773Z,99.90
2019-03-04T19:48:50.985Z,99.90
2019-03-04T19:51:20.328Z,99.90
2019-03-04T19:53:52.987Z,99.90
2019-03-04T19:56:22.434Z,99.90
2019-03-04T19:58:53.185Z,99.90
2019-03-04T20:01:22.630Z,99.90
2019-03-04T20:03:55.051Z,99.90
2019-03-04T20:06:27.908Z,99.90
2019-03-04T20:08:57.394Z,99.90
2019-03-04T20:11:35.762Z,99.90
2019-03-04T20:14:25.376Z,99.90
2019-03-04T20:16:56.382Z,99.90
2019-03-04T20:19:25.827Z,99.90
2019-03-04T20:21:55.304Z,99.90
2019-03-04T20:24:26.306Z,99.90
2019-03-04T20:26:55.702Z,99.90
2019-03-04T20:29:26.682Z,99.90
2019-03-04T20:31:56.743Z,99.90
2019-03-04T20:34:26.664Z,99.90
2019-03-04T20:36:56.784Z,99.90
2019-03-04T20:39:29.006Z,99.90
2019-03-04T20:42:00.690Z,99.90
2019-03-04T20:44:29.522Z,99.90
2019-03-04T20:46:59.023Z,99.90
2019-03-04T20:49:31.603Z,99.90
2019-03-04T20:52:04.264Z,99.90
2019-03-04T20:54:33.607Z,99.90
2019-03-04T20:57:03.466Z,99.90
2019-03-04T20:59:33.390Z,99.90
2019-03-04T21:02:02.634Z,99.90
2019-03-04T21:04:31.923Z,99.90
2019-03-04T21:07:01.241Z,99.90
2019-03-04T21:09:31.474Z,99.90
2019-03-04T21:12:03.990Z,99.90
2019-03-04T21:14:35.007Z,99.90
2019-03-04T21:17:04.467Z,99.90
2019-03-04T21:19:35.467Z,99.90
2019-03-04T21:22:04.885Z,99.90
2019-03-04T21:24:35.446Z,99.90
2019-03-04T21:27:05.314Z,99.90
2019-03-04T21:29:43.269Z,99.90
2019-03-04T21:32:15.514Z,99.90
2019-03-04T21:35:03.740Z,99.90
2019-03-04T21:37:38.971Z,99.90
2019-03-04T21:40:20.551Z,99.90
2019-03-04T21:42:58.988Z,99.90
2019-03-04T21:45:50.802Z,99.90
2019-03-04T21:48:28.662Z,99.90
2019-03-04T21:51:15.958Z,99.90
2019-03-04T21:53:53.106Z,99.90
2019-03-04T21:56:44.643Z,99.90
2019-03-04T21:59:15.229Z,99.90
2019-03-04T22:01:59.117Z,99.90
2019-03-04T22:04:28.232Z,99.90
2019-03-04T22:06:57.308Z,99.90
2019-03-04T22:09:28.476Z,99.90
2019-03-04T22:11:57.846Z,99.90
2019-03-04T22:14:27.465Z,99.90
2019-03-04T22:16:56.714Z,99.90
2019-03-04T22:19:26.084Z,99.90
2019-03-04T22:21:55.765Z,99.90
2019-03-04T22:24:28.765Z,99.90
2019-03-04T22:26:57.902Z,99.90
2019-03-04T22:29:27.316Z,99.90
2019-03-04T22:31:56.855Z,99.90
2019-03-04T22:34:26.158Z,99.90
2019-03-04T22:36:55.183Z,99.90
2019-03-04T22:39:24.295Z,99.90
2019-03-04T22:41:53.662Z,99.90
2019-03-04T22:44:22.783Z,99.90
2019-03-04T22:46:52.209Z,99.90
2019-03-04T22:49:21.945Z,99.90
2019-03-04T22:51:54.303Z,99.90
2019-03-04T22:54:23.689Z,99.90
2019-03-04T22:56:54.732Z,99.90
2019-03-04T22:59:24.246Z,99.90
2019-03-04T23:01:57.016Z,99.90
2019-03-04T23:04:26.303Z,99.90
2019-03-04T23:07:01.843Z,99.90
2019-03-04T23:09:39.522Z,99.90
2019-03-04T23:12:23.823Z,99.90
2019-03-04T23:14:53.263Z,99.90
2019-03-04T23:17:22.302Z,99.90
2019-03-04T23:19:51.422Z,99.90
2019-03-04T23:22:20.503Z,99.90
2019-03-04T23:24:49.986Z,99.90
2019-03-04T23:27:19.364Z,99.90
2019-03-04T23:29:49.143Z,99.90
2019-03-04T23:32:18.266Z,99.90
2019-03-04T23:34:49.443Z,99.90
2019-03-04T23:37:18.702Z,99.90
2019-03-04T23:39:48.223Z,99.90
2019-03-04T23:42:17.342Z,99.90
2019-03-04T23:44:48.503Z,99.90
2019-03-04T23:47:22.463Z,99.90
2019-03-04T23:49:54.623Z,99.90
2019-03-04T23:52:23.783Z,99.90
2019-03-04T23:54:52.942Z,99.90
2019-03-04T23:57:22.003Z,99.90
2019-03-04T23:59:51.342Z,99.90
